Time;durP1;ratioP1;P1;durP2;ratioP2;P2;SDS_P1;SDS_P2;PMS_P1;PMS_P2;Temp;Humidity;BMP_temperature;BMP_pressure;BME280_temperature;BME280_humidity;BME280_pressure;Samples;Min_cycle;Max_cycle;Signal;HPM_P1;HPM_P2
2022/05/13 00:01:37;;;;;;;33.53;10.70;;;;;;;30.29;73.44;100711.31;5039044;28;69392;-37
2022/05/13 00:04:08;;;;;;;15.20;10.57;;;;;;;29.97;74.97;100653.66;5042623;28;66311;-35
2022/05/13 00:06:38;;;;;;;11.75;10.55;;;;;;;30.46;73.71;100723.22;5040654;28;69902;-35
2022/05/13 00:09:09;;;;;;;13.80;10.65;;;;;;;30.55;74.28;100726.50;5057609;28;66400;-35
2022/05/13 00:11:39;;;;;;;16.05;10.32;;;;;;;30.60;71.75;100718.53;5041502;28;70072;-35
2022/05/13 00:14:10;;;;;;;12.05;9.02;;;;;;;30.66;73.45;100733.06;5026165;28;65756;-36
2022/05/13 00:16:41;;;;;;;11.55;8.82;;;;;;;30.66;73.16;100728.47;5036196;28;69687;-37
2022/05/13 00:19:11;;;;;;;10.43;9.05;;;;;;;30.73;73.20;100733.84;5040526;28;66152;-36
2022/05/13 00:21:41;;;;;;;15.57;9.23;;;;;;;30.76;73.24;100740.66;5031372;28;70556;-36
2022/05/13 00:24:11;;;;;;;10.85;9.63;;;;;;;30.74;73.18;100746.31;5028032;28;66748;-34
2022/05/13 00:26:42;;;;;;;10.20;9.27;;;;;;;30.79;72.91;100754.59;5041141;28;70293;-33
2022/05/13 00:29:12;;;;;;;9.27;8.48;;;;;;;30.81;73.55;100749.81;5022987;28;66051;-37
2022/05/13 00:31:42;;;;;;;12.10;8.52;;;;;;;30.86;73.08;100770.81;5021804;28;70000;-36
2022/05/13 00:34:13;;;;;;;9.18;8.45;;;;;;;30.90;72.40;100766.63;5020770;28;65709;-36
2022/05/13 00:36:44;;;;;;;10.00;8.57;;;;;;;30.89;72.83;100770.34;5023108;28;69367;-37
2022/05/13 00:39:15;;;;;;;12.05;8.63;;;;;;;30.92;72.69;100776.19;5021454;28;65589;-36
2022/05/13 00:41:46;;;;;;;15.85;8.15;;;;;;;30.97;73.13;100786.31;5022245;28;69410;-37
2022/05/13 00:44:17;;;;;;;7.07;6.57;;;;;;;31.09;69.07;100789.13;5021361;28;66506;-36
2022/05/13 00:46:48;;;;;;;7.63;7.03;;;;;;;31.20;68.30;100795.69;5025850;28;69027;-36
2022/05/13 00:49:18;;;;;;;7.57;6.75;;;;;;;31.26;67.86;100797.50;5041919;28;65180;-35
2022/05/13 00:51:49;;;;;;;6.95;6.25;;;;;;;31.25;67.93;100785.00;5041857;28;70073;-35
2022/05/13 00:54:19;;;;;;;6.63;6.25;;;;;;;31.41;67.38;100799.88;5042276;28;65402;-35
2022/05/13 00:56:49;;;;;;;6.53;5.93;;;;;;;31.47;67.08;100798.97;5040040;28;70240;-35
2022/05/13 00:59:23;;;;;;;7.35;6.68;;;;;;;31.16;66.91;100733.00;5040179;28;65937;-35
2022/05/13 01:01:53;;;;;;;7.00;6.18;;;;;;;31.56;66.74;100782.16;5040456;28;70629;-36
2022/05/13 01:04:25;;;;;;;7.10;6.00;;;;;;;31.60;66.37;100787.97;5037425;28;66685;-34
2022/05/13 01:06:57;;;;;;;5.53;5.13;;;;;;;31.23;66.40;100716.66;5040309;28;69992;-34
2022/05/13 01:09:32;;;;;;;6.88;6.25;;;;;;;31.63;66.21;100770.41;5040745;28;65476;-35
2022/05/13 01:12:09;;;;;;;6.38;5.88;;;;;;;31.33;66.15;100723.19;5040576;28;69812;-35
2022/05/13 01:14:46;;;;;;;6.28;5.88;;;;;;;31.75;65.76;100790.28;5041301;28;66710;-35
2022/05/13 01:20:22;;;;;;;6.43;5.80;;;;;;;31.50;64.93;100736.97;5041359;28;66290;-35
2022/05/13 01:22:58;;;;;;;5.93;5.38;;;;;;;31.90;64.45;100793.44;5041212;28;70753;-36
2022/05/13 01:25:33;;;;;;;5.38;5.07;;;;;;;31.78;64.82;100762.69;5040606;28;66650;-35
2022/05/13 01:28:14;;;;;;;5.88;5.47;;;;;;;31.55;64.36;100726.28;5039020;28;70158;-34
2022/05/13 01:31:07;;;;;;;6.05;5.60;;;;;;;31.81;64.62;100784.75;5039141;28;66115;-35
2022/05/13 01:33:39;;;;;;;6.13;5.60;;;;;;;32.04;63.68;100800.34;5038967;28;70350;-36
2022/05/13 01:36:12;;;;;;;6.55;5.93;;;;;;;32.07;63.31;100800.94;5040081;28;66456;-35
2022/05/13 01:38:43;;;;;;;6.53;6.00;;;;;;;32.10;62.86;100792.34;5039777;28;69978;-35
2022/05/13 01:41:15;;;;;;;6.20;5.53;;;;;;;32.11;62.80;100786.69;5040737;28;66730;-36
2022/05/13 01:43:48;;;;;;;5.75;5.35;;;;;;;32.18;62.90;100794.72;5040793;28;70186;-35
2022/05/13 01:46:20;;;;;;;5.40;5.00;;;;;;;32.19;62.86;100794.50;5040466;28;65204;-35
2022/05/13 01:48:50;;;;;;;;;;;;;;;31.90;64.28;100798.84;5039738;28;70077;-36
2022/05/13 01:51:20;;;;;;;5.47;5.07;;;;;;;32.22;62.64;100806.78;5031683;28;66018;-37
2022/05/13 01:53:51;;;;;;;6.30;4.82;;;;;;;32.27;62.37;100806.91;5039546;28;70298;-35
2022/05/13 01:56:21;;;;;;;5.20;4.90;;;;;;;32.19;62.25;100790.97;5040945;28;66379;-35
2022/05/13 01:58:51;;;;;;;5.78;5.38;;;;;;;32.34;62.28;100810.34;5039789;28;69835;-35
2022/05/13 02:01:22;;;;;;;5.90;5.40;;;;;;;32.37;61.71;100809.88;5040486;28;65720;-34
2022/05/13 02:03:52;;;;;;;7.60;5.78;;;;;;;32.26;62.18;100787.09;5040044;28;69677;-36
2022/05/13 02:06:25;;;;;;;5.35;4.95;;;;;;;32.10;61.75;100748.94;5038866;28;66183;-36
2022/05/13 02:08:57;;;;;;;5.63;5.18;;;;;;;32.14;61.60;100752.81;5038540;28;70256;-35
2022/05/13 02:11:31;;;;;;;5.50;5.10;;;;;;;32.50;61.60;100806.16;5039870;28;65534;-35
2022/05/13 02:14:01;;;;;;;5.28;4.88;;;;;;;32.53;61.41;100807.59;5038785;28;70125;-35
2022/05/13 02:16:32;;;;;;;5.28;4.90;;;;;;;32.56;61.47;100807.13;5040314;28;65810;-36
2022/05/13 02:19:02;;;;;;;5.65;5.25;;;;;;;32.60;61.17;100808.31;5040571;28;69876;-35
2022/05/13 02:21:33;;;;;;;4.53;4.32;;;;;;;32.63;61.10;100807.84;5039514;28;66937;-35
2022/05/13 02:24:04;;;;;;;5.40;5.00;;;;;;;32.65;61.37;100803.84;5040310;28;70219;-36
2022/05/13 02:26:34;;;;;;;5.25;4.85;;;;;;;32.66;61.16;100808.22;5040701;28;66312;-35
2022/05/13 02:29:04;;;;;;;6.80;5.20;;;;;;;32.71;61.19;100807.50;5038409;28;70477;-35
2022/05/13 02:31:34;;;;;;;4.82;4.43;;;;;;;32.74;61.28;100804.31;5040410;28;66361;-35
2022/05/13 02:34:05;;;;;;;5.88;5.47;;;;;;;32.77;60.94;100805.75;5040306;28;69268;-35
2022/05/13 02:36:36;;;;;;;5.30;4.90;;;;;;;32.78;60.85;100800.06;5039361;28;65538;-34
2022/05/13 02:39:06;;;;;;;5.28;4.90;;;;;;;32.70;60.47;100786.81;5040176;28;70013;-35
2022/05/13 02:41:36;;;;;;;4.78;4.47;;;;;;;32.51;60.88;100744.53;5039740;28;66712;-35
2022/05/13 02:44:06;;;;;;;5.13;4.72;;;;;;;32.88;60.56;100794.88;5039911;28;70754;-35
2022/05/13 02:46:42;;;;;;;5.18;4.72;;;;;;;32.89;60.39;100795.69;5039538;28;66413;-35
2022/05/13 02:49:12;;;;;;;4.65;4.32;;;;;;;32.95;60.20;100789.31;5039850;28;70105;-36
2022/05/13 02:51:46;;;;;;;4.65;4.25;;;;;;;32.58;59.95;100723.53;5039875;28;65686;-36
2022/05/13 02:54:17;;;;;;;5.20;4.80;;;;;;;33.00;59.79;100780.50;5039968;28;70234;-35
2022/05/13 02:56:47;;;;;;;4.50;4.20;;;;;;;32.98;59.70;100788.00;5038322;28;66046;-35
2022/05/13 02:59:17;;;;;;;4.88;4.50;;;;;;;33.00;59.78;100780.50;5039325;28;70217;-36
2022/05/13 03:01:47;;;;;;;4.65;4.35;;;;;;;33.05;59.65;100789.59;5039181;28;66933;-35
2022/05/13 03:04:17;;;;;;;4.95;4.57;;;;;;;33.05;59.89;100788.75;5037461;28;69638;-35
2022/05/13 03:06:48;;;;;;;5.43;5.03;;;;;;;33.07;59.47;100781.19;5039331;28;66297;-36
2022/05/13 03:09:18;;;;;;;5.22;4.82;;;;;;;33.07;59.46;100786.63;5039595;28;70024;-35
2022/05/13 03:11:49;;;;;;;4.85;4.50;;;;;;;33.07;59.33;100782.03;5037830;28;66682;-35
2022/05/13 03:14:19;;;;;;;5.40;5.00;;;;;;;33.07;59.73;100781.19;5039400;28;69998;-34
2022/05/13 03:16:49;;;;;;;4.88;4.57;;;;;;;33.07;59.52;100783.91;5039892;28;66938;-35
2022/05/13 03:19:19;;;;;;;5.93;5.38;;;;;;;33.04;59.43;100765.34;5038384;28;70620;-35
2022/05/13 03:21:49;;;;;;;5.10;4.55;;;;;;;33.11;59.23;100775.03;5039967;28;66282;-35
2022/05/13 03:24:20;;;;;;;5.15;4.80;;;;;;;33.08;59.47;100755.69;5039440;28;70108;-38
2022/05/13 03:26:50;;;;;;;5.75;4.93;;;;;;;33.08;59.21;100750.25;5038788;28;66456;-36
2022/05/13 03:29:20;;;;;;;4.80;4.47;;;;;;;33.18;59.27;100766.75;5039595;28;69560;-36
2022/05/13 03:31:50;;;;;;;5.07;4.68;;;;;;;33.15;59.38;100759.06;5039639;28;66331;-36
2022/05/13 03:34:21;;;;;;;4.40;4.07;;;;;;;33.22;58.92;100761.69;5039169;28;70321;-35
2022/05/13 03:36:52;;;;;;;5.35;4.95;;;;;;;33.22;58.98;100762.50;5039365;28;65545;-35
2022/05/13 03:39:22;;;;;;;4.00;3.80;;;;;;;33.21;58.65;100739.13;5039105;28;69573;-34
2022/05/13 03:41:52;;;;;;;5.00;4.60;;;;;;;33.27;59.04;100742.75;5041955;28;66011;-36
2022/05/13 03:44:23;;;;;;;5.38;5.07;;;;;;;33.28;58.79;100733.53;5042607;28;70661;-35
2022/05/13 03:46:53;;;;;;;5.07;4.57;;;;;;;33.26;58.61;100720.16;5042423;28;66584;-35
2022/05/13 03:49:23;;;;;;;5.15;4.75;;;;;;;33.32;58.81;100712.94;5042488;28;70004;-34
2022/05/13 03:51:53;;;;;;;5.05;4.72;;;;;;;33.23;58.52;100700.81;5042933;28;65813;-35
2022/05/13 03:54:24;;;;;;;4.78;4.22;;;;;;;33.30;58.67;100704.22;5041383;28;70116;-36
2022/05/13 03:56:54;;;;;;;5.18;4.85;;;;;;;33.30;58.77;100698.78;5042668;28;65448;-35
2022/05/13 03:59:24;;;;;;;4.43;4.07;;;;;;;33.27;58.42;100691.94;5042776;28;70073;-36
2022/05/13 04:01:54;;;;;;;4.93;4.47;;;;;;;33.34;58.52;100684.44;5040778;28;66518;-36
2022/05/13 04:04:27;;;;;;;4.80;4.50;;;;;;;33.41;58.52;100692.47;5041603;28;70488;-35
2022/05/13 04:09:46;;;;;;;4.93;4.53;;;;;;;33.42;58.24;100682.44;5042944;28;70269;-36
2022/05/13 04:17:53;;;;;;;4.68;4.38;;;;;;;33.46;58.13;100656.38;5040735;28;66005;-36
2022/05/13 04:20:23;;;;;;;4.30;3.90;;;;;;;33.52;57.97;100669.03;5042222;28;69414;-35
2022/05/13 04:22:53;;;;;;;4.22;3.83;;;;;;;33.55;58.03;100663.13;5042628;28;66322;-35
2022/05/13 04:25:23;;;;;;;4.75;4.28;;;;;;;33.54;57.67;100645.16;5041453;28;70301;-37
2022/05/13 04:27:53;;;;;;;4.30;4.00;;;;;;;33.57;57.84;100656.38;5041472;28;66730;-36
2022/05/13 04:30:24;;;;;;;4.22;4.03;;;;;;;33.58;57.78;100639.00;5039799;28;69855;-36
2022/05/13 04:32:54;;;;;;;5.00;4.40;;;;;;;33.58;57.93;100630.81;5041092;28;66739;-37
2022/05/13 04:35:24;;;;;;;3.75;3.55;;;;;;;33.63;57.80;100640.13;5042305;28;70045;-36
2022/05/13 04:37:54;;;;;;;3.95;3.67;;;;;;;33.63;57.84;100624.66;5042023;28;66283;-36
2022/05/13 04:40:25;;;;;;;4.57;4.18;;;;;;;33.56;57.68;100613.09;5040453;28;70491;-36
2022/05/13 04:42:55;;;;;;;4.25;3.95;;;;;;;33.66;57.61;100621.44;5042326;28;66186;-35
2022/05/13 04:45:28;;;;;;;4.35;4.13;;;;;;;33.73;57.57;100629.44;5041174;28;69700;-36
2022/05/13 04:48:26;;;;;;;4.53;3.70;;;;;;;33.41;57.66;100563.88;5039494;28;66004;-36
2022/05/13 04:50:58;;;;;;;3.67;3.40;;;;;;;33.76;57.66;100616.16;5042015;28;69663;-35
2022/05/13 04:53:31;;;;;;;3.95;3.67;;;;;;;33.71;57.29;100601.66;5039908;28;66865;-34
2022/05/13 04:56:05;;;;;;;4.20;3.90;;;;;;;33.37;57.20;100526.28;5039536;28;70401;-36
2022/05/13 04:58:36;;;;;;;4.60;4.20;;;;;;;33.74;57.39;100579.41;5040466;28;65661;-36
2022/05/13 05:01:07;;;;;;;4.25;3.85;;;;;;;33.41;57.46;100525.81;5040707;28;69765;-36
2022/05/13 05:03:40;;;;;;;;;;;;;;;33.53;57.76;100600.00;5042058;28;66688;-37
2022/05/13 05:06:11;;;;;;;;;;;;;;;33.51;57.57;100596.66;5040850;28;70384;-35
2022/05/13 05:08:42;;;;;;;4.05;3.75;;;;;;;33.84;57.43;100586.91;5042001;28;65355;-34
2022/05/13 05:11:14;;;;;;;4.55;4.20;;;;;;;33.87;56.94;100584.50;5041324;28;68900;-35
2022/05/13 05:13:50;;;;;;;4.93;3.45;;;;;;;33.90;56.39;100577.75;5037987;28;66569;-36
2022/05/13 05:16:22;;;;;;;3.90;3.60;;;;;;;33.95;56.84;100575.13;5041997;28;70665;-35
2022/05/13 05:18:52;;;;;;;3.70;3.50;;;;;;;33.93;56.71;100560.94;5056112;28;66642;-35
2022/05/13 05:21:23;;;;;;;3.92;3.45;;;;;;;34.01;56.68;100565.94;5041488;28;69161;-36
2022/05/13 05:23:53;;;;;;;3.30;3.10;;;;;;;34.03;56.62;100566.53;5041321;28;65220;-35
2022/05/13 05:26:23;;;;;;;3.63;3.42;;;;;;;33.87;56.77;100529.28;5040580;28;70517;-36
2022/05/13 05:28:54;;;;;;;3.50;3.30;;;;;;;34.06;56.26;100546.19;5041618;28;66496;-35
2022/05/13 05:31:24;;;;;;;5.28;3.63;;;;;;;34.07;56.20;100545.91;5041501;28;70058;-36
2022/05/13 05:33:55;;;;;;;3.58;3.28;;;;;;;34.12;56.49;100547.91;5040864;28;65687;-37
2022/05/13 05:36:25;;;;;;;3.78;3.47;;;;;;;34.14;56.60;100546.59;5041130;28;70681;-36
2022/05/13 05:38:55;;;;;;;3.83;3.58;;;;;;;34.13;56.39;100528.63;5039731;28;66321;-36
2022/05/13 05:41:26;;;;;;;3.50;3.10;;;;;;;34.10;56.22;100518.22;5039774;28;68781;-36
2022/05/13 05:43:56;;;;;;;3.25;2.95;;;;;;;34.22;56.29;100537.97;5041121;28;66072;-36
2022/05/13 05:46:26;;;;;;;3.50;3.15;;;;;;;34.28;56.23;100519.00;5041151;28;69631;-36
2022/05/13 05:48:56;;;;;;;3.40;3.10;;;;;;;34.31;56.04;100523.94;5039445;28;66663;-36
2022/05/13 05:51:27;;;;;;;3.10;2.90;;;;;;;34.35;55.95;100525.06;5041057;28;70367;-36
2022/05/13 05:57:15;;;;;;;2.72;2.53;;;;;;;34.28;55.84;100486.34;4998833;28;70053;-36
2022/05/13 05:59:46;;;;;;;3.78;3.50;;;;;;;34.03;55.98;100438.63;4965715;28;65157;-36
2022/05/13 06:02:17;;;;;;;3.10;2.90;;;;;;;34.45;55.77;100508.88;5023371;28;70034;-36
2022/05/13 06:04:47;;;;;;;3.00;2.70;;;;;;;34.49;55.64;100510.00;5040780;28;65838;-35
2022/05/13 06:07:18;;;;;;;3.20;3.00;;;;;;;34.44;55.69;100485.44;5039851;28;70552;-36
2022/05/13 06:09:51;;;;;;;3.35;3.08;;;;;;;34.57;55.41;100501.41;5038992;28;66459;-37
2022/05/13 06:12:21;;;;;;;3.03;2.83;;;;;;;34.57;55.71;100490.50;5039590;28;69687;-37
2022/05/13 06:14:52;;;;;;;3.17;2.97;;;;;;;34.59;55.07;100482.09;5040600;28;65967;-37
2022/05/13 06:17:23;;;;;;;2.90;2.70;;;;;;;34.62;55.10;100497.94;5041206;28;68967;-35
2022/05/13 06:19:53;;;;;;;5.18;3.08;;;;;;;34.67;55.23;100487.91;5040006;28;66005;-36
2022/05/13 06:22:23;;;;;;;2.80;2.58;;;;;;;34.41;54.89;100442.38;5040544;28;69104;-36
2022/05/13 06:24:53;;;;;;;2.97;2.78;;;;;;;34.74;54.85;100481.44;5039421;28;65261;-36
2022/05/13 06:27:24;;;;;;;3.03;2.83;;;;;;;34.74;55.05;100462.38;5039150;28;70224;-36
2022/05/13 06:29:54;;;;;;;4.45;2.88;;;;;;;34.85;54.74;100475.00;5041187;28;66325;-35
2022/05/13 06:32:24;;;;;;;2.85;2.65;;;;;;;34.88;54.49;100460.88;5040446;28;70740;-35
2022/05/13 06:34:54;;;;;;;3.13;2.92;;;;;;;34.83;54.77;100450.75;5039139;28;66319;-36
2022/05/13 06:37:25;;;;;;;3.47;2.88;;;;;;;34.97;54.77;100459.34;5039889;28;70105;-36
2022/05/13 06:39:55;;;;;;;2.90;2.70;;;;;;;35.02;54.43;100469.44;5040782;28;65284;-36
2022/05/13 06:42:25;;;;;;;3.08;2.55;;;;;;;35.05;54.42;100469.78;5038888;28;70178;-36
2022/05/13 06:44:56;;;;;;;2.97;2.78;;;;;;;35.09;54.57;100465.47;5038927;28;66446;-36
2022/05/13 06:47:26;;;;;;;4.47;3.38;;;;;;;35.10;54.39;100456.22;5038387;28;70131;-36
2022/05/13 06:50:00;;;;;;;4.22;2.70;;;;;;;35.09;53.81;100438.19;5037402;28;65347;-36
2022/05/13 06:52:30;;;;;;;3.63;2.90;;;;;;;35.24;53.82;100436.69;5040155;28;69596;-37
2022/05/13 06:55:12;;;;;;;3.03;2.83;;;;;;;34.98;53.68;100387.38;5039457;28;65672;-35
2022/05/13 06:57:42;;;;;;;2.88;2.67;;;;;;;35.21;53.73;100413.47;5038083;28;69613;-35
2022/05/13 07:00:13;;;;;;;2.75;2.60;;;;;;;35.39;54.02;100428.63;5038659;28;65816;-35
2022/05/13 07:02:44;;;;;;;3.55;3.25;;;;;;;35.43;53.90;100432.47;5037352;28;69791;-36
2022/05/13 07:05:16;;;;;;;3.05;2.85;;;;;;;35.47;53.77;100436.31;5039405;28;66637;-37
2022/05/13 07:07:47;;;;;;;3.90;3.00;;;;;;;35.50;53.41;100427.63;5039382;28;70137;-35
2022/05/13 07:10:17;;;;;;;;;;;;;;;35.26;54.13;100420.88;5037957;28;66012;-34
2022/05/13 07:12:48;;;;;;;3.00;2.80;;;;;;;35.45;53.87;100411.22;5039456;28;69975;-35
2022/05/13 07:15:20;;;;;;;3.15;2.85;;;;;;;35.56;52.95;100409.41;5040284;28;65879;-34
2022/05/13 07:17:50;;;;;;;2.88;2.67;;;;;;;35.63;53.43;100414.63;5041979;28;69589;-35
2022/05/13 07:20:21;;;;;;;2.97;2.78;;;;;;;35.65;52.87;100412.44;5042813;28;65671;-35
2022/05/13 07:22:52;;;;;;;2.80;2.60;;;;;;;35.53;53.39;100394.34;5042785;28;69844;-35
2022/05/13 07:25:23;;;;;;;3.60;3.30;;;;;;;35.64;52.91;100399.91;5042205;28;65910;-35
2022/05/13 07:27:53;;;;;;;3.40;3.20;;;;;;;35.67;52.89;100389.28;5043276;28;70676;-35
2022/05/13 07:30:24;;;;;;;2.90;2.70;;;;;;;35.65;52.97;100387.91;5042599;28;65599;-36
2022/05/13 07:32:54;;;;;;;2.67;2.50;;;;;;;35.69;53.48;100384.38;5042728;28;69158;-35
2022/05/13 07:35:25;;;;;;;2.80;2.60;;;;;;;35.63;53.56;100368.22;5042639;28;65785;-36
2022/05/13 07:37:55;;;;;;;3.33;2.80;;;;;;;35.74;52.72;100372.66;5041768;28;69252;-36
2022/05/13 07:43:14;;;;;;;3.25;2.97;;;;;;;35.69;52.83;100365.28;5041375;28;69847;-36
2022/05/13 07:45:44;;;;;;;4.72;3.00;;;;;;;35.78;53.11;100374.59;5057751;28;66558;-35
2022/05/13 07:48:15;;;;;;;2.85;2.65;;;;;;;35.80;52.91;100366.97;5042709;28;70495;-36
2022/05/13 07:50:45;;;;;;;2.90;2.70;;;;;;;35.70;52.44;100353.28;5042756;28;65835;-35
2022/05/13 07:53:15;;;;;;;4.38;2.70;;;;;;;35.83;52.79;100353.84;5042738;28;69897;-35
2022/05/13 07:55:45;;;;;;;2.95;2.75;;;;;;;35.83;52.71;100343.78;5042560;28;66226;-35
2022/05/13 07:58:16;;;;;;;3.10;2.80;;;;;;;35.79;53.09;100326.28;5041974;28;70464;-36
2022/05/13 08:00:46;;;;;;;5.70;2.80;;;;;;;35.85;52.49;100336.13;5041171;28;65720;-37
2022/05/13 08:03:17;;;;;;;3.05;2.85;;;;;;;35.82;52.59;100324.94;5042337;28;70482;-36
2022/05/13 08:05:51;;;;;;;2.08;1.98;;;;;;;35.82;52.75;100314.03;5040634;28;65989;-38
2022/05/13 08:08:30;;;;;;;5.35;2.78;;;;;;;35.72;52.95;100303.91;5042094;28;69968;-37
2022/05/13 08:11:01;;;;;;;4.25;2.50;;;;;;;35.87;52.90;100333.97;5041900;28;65364;-43
2022/05/13 08:13:34;;;;;;;11.13;2.92;;;;;;;35.94;53.09;100342.75;5041338;28;69020;-45
2022/05/13 08:16:13;;;;;;;2.88;2.67;;;;;;;35.54;52.88;100277.88;5040040;28;65548;-39
2022/05/13 08:18:45;;;;;;;2.97;2.70;;;;;;;35.97;52.51;100344.94;5040528;28;70411;-39
2022/05/13 08:21:16;;;;;;;3.45;3.15;;;;;;;35.97;53.03;100344.13;5041828;28;65829;-38
2022/05/13 08:23:46;;;;;;;2.28;2.17;;;;;;;35.98;52.98;100338.38;5041686;28;69931;-39
2022/05/13 08:26:16;;;;;;;2.50;2.40;;;;;;;35.95;52.37;100328.00;5039969;28;66262;-38
2022/05/13 08:28:47;;;;;;;2.80;2.60;;;;;;;35.98;52.53;100329.38;5041771;28;69178;-42
2022/05/13 08:31:17;;;;;;;3.25;2.78;;;;;;;35.98;53.07;100330.19;5042122;28;66283;-39
2022/05/13 08:33:48;;;;;;;2.90;2.53;;;;;;;36.01;52.49;100329.63;5040180;28;70453;-38
2022/05/13 08:36:18;;;;;;;4.00;2.67;;;;;;;35.98;52.87;100321.19;5040890;28;65538;-39
2022/05/13 08:38:50;;;;;;;4.38;2.80;;;;;;;35.99;52.25;100312.69;5041448;28;70962;-39
2022/05/13 08:41:53;;;;;;;2.88;2.67;;;;;;;35.54;52.58;100256.88;5041493;28;66397;-39
2022/05/13 08:44:25;;;;;;;2.90;2.50;;;;;;;36.02;52.58;100323.09;5040848;28;69298;-39
2022/05/13 08:47:14;;;;;;;2.80;2.60;;;;;;;35.56;52.78;100262.91;5040019;28;66521;-39
2022/05/13 08:50:03;;;;;;;3.08;2.88;;;;;;;35.96;52.41;100312.44;5041118;28;70062;-38
2022/05/13 08:55:26;;;;;;;6.32;2.83;;;;;;;36.05;52.89;100296.34;5040952;28;69900;-38
2022/05/13 08:57:59;;;;;;;6.57;3.00;;;;;;;36.03;52.30;100294.72;5041896;28;65766;-38
2022/05/13 09:00:41;;;;;;;7.00;2.97;;;;;;;35.74;52.94;100264.31;5039907;28;70418;-38
2022/05/13 09:03:25;;;;;;;3.63;3.33;;;;;;;35.55;52.51;100244.88;5041580;28;65329;-39
2022/05/13 09:06:14;;;;;;;3.15;2.85;;;;;;;36.03;52.49;100332.13;5038410;28;70329;-39
2022/05/13 09:08:48;;;;;;;3.20;3.00;;;;;;;36.08;53.09;100301.28;5041966;28;65760;-39
2022/05/13 09:11:55;;;;;;;4.18;2.90;;;;;;;35.99;53.15;100304.50;5040585;28;71314;-39
2022/05/13 09:14:45;;;;;;;5.72;3.30;;;;;;;35.97;52.80;100306.72;5000190;28;66467;-39
2022/05/13 09:17:34;;;;;;;3.67;3.33;;;;;;;35.97;52.87;100305.91;5041719;28;69596;-38
2022/05/13 09:20:07;;;;;;;5.20;3.50;;;;;;;36.05;52.80;100301.78;5039834;28;66645;-39
2022/05/13 09:22:45;;;;;;;4.20;3.35;;;;;;;36.02;52.85;100306.72;5039470;28;70111;-38
2022/05/13 09:25:27;;;;;;;5.93;3.63;;;;;;;35.98;53.00;100302.88;5041191;28;65706;-38
2022/05/13 09:28:01;;;;;;;6.82;3.70;;;;;;;35.98;53.38;100327.44;5041077;28;70111;-38
2022/05/13 09:30:38;;;;;;;5.80;4.00;;;;;;;35.96;53.05;100326.88;5040571;28;66280;-38
2022/05/13 09:33:39;;;;;;;4.25;3.92;;;;;;;35.83;53.49;100327.41;5040614;28;70230;-38
2022/05/13 09:36:31;;;;;;;4.97;3.28;;;;;;;35.83;53.97;100324.69;5041703;28;65719;-39
2022/05/13 09:39:18;;;;;;;4.00;3.60;;;;;;;35.40;53.62;100269.34;5037861;28;70052;-39
2022/05/13 09:41:52;;;;;;;5.03;4.15;;;;;;;35.88;53.87;100357.44;5039462;28;66130;-38
2022/05/13 09:44:27;;;;;;;5.22;3.85;;;;;;;35.89;54.27;100353.63;5039350;28;70553;-39
2022/05/13 09:47:30;;;;;;;7.45;3.88;;;;;;;35.72;54.08;100347.56;5036322;28;66090;-39
2022/05/13 09:50:29;;;;;;;7.00;4.03;;;;;;;35.79;54.57;100372.69;5014119;28;69464;-39
2022/05/13 09:53:05;;;;;;;9.35;4.63;;;;;;;35.64;53.96;100356.25;5018946;28;66114;-39
2022/05/13 09:55:38;;;;;;;4.53;4.20;;;;;;;35.75;54.22;100390.69;5019826;28;69855;-39
2022/05/13 09:58:36;;;;;;;4.57;4.28;;;;;;;35.72;54.29;100386.59;5019186;28;66608;-39
2022/05/13 10:01:13;;;;;;;4.93;4.53;;;;;;;35.80;54.54;100357.94;5020017;28;70481;-39
2022/05/13 10:04:01;;;;;;;4.78;4.35;;;;;;;35.71;54.48;100367.72;5019648;28;66721;-38
2022/05/13 10:06:35;;;;;;;4.72;4.43;;;;;;;35.26;55.37;100304.47;5017536;28;69956;-39
2022/05/13 10:15:40;;;;;;;5.22;4.80;;;;;;;35.69;55.74;100435.38;4997034;28;66221;-39
2022/05/13 10:18:27;;;;;;;5.30;4.90;;;;;;;35.68;55.38;100453.66;5015805;28;69910;-38
2022/05/13 10:21:15;;;;;;;5.40;4.97;;;;;;;35.21;55.94;100390.84;5019668;28;65364;-39
2022/05/13 10:23:58;;;;;;;8.00;5.80;;;;;;;35.63;55.91;100431.78;5019362;28;69867;-38
2022/05/13 10:26:35;;;;;;;5.93;5.15;;;;;;;35.06;55.58;100318.78;5020305;28;66768;-38
2022/05/13 10:29:30;;;;;;;6.20;5.60;;;;;;;35.60;55.70;100398.78;5028671;28;70214;-41
2022/05/13 10:32:02;;;;;;;5.72;5.22;;;;;;;35.19;55.58;100339.34;5039343;28;65413;-39
2022/05/13 10:34:48;;;;;;;5.82;5.32;;;;;;;35.48;56.07;100402.50;5019909;28;69812;-37
2022/05/13 10:37:27;;;;;;;6.10;5.50;;;;;;;35.36;57.67;100415.53;5039185;28;66239;-38
2022/05/13 10:40:26;;;;;;;7.20;6.63;;;;;;;34.96;60.77;100454.94;5025031;28;70249;-39
2022/05/13 10:43:25;;;;;;;7.28;6.75;;;;;;;34.77;62.97;100478.19;5019098;28;65663;-38
2022/05/13 10:46:04;;;;;;;7.28;6.63;;;;;;;34.57;64.10;100495.13;5018497;28;70585;-38
2022/05/13 10:48:34;;;;;;;12.52;6.85;;;;;;;34.36;64.09;100496.78;5037592;28;66544;-39
2022/05/13 10:51:19;;;;;;;7.75;7.00;;;;;;;34.23;64.79;100485.19;5041930;28;69588;-38
2022/05/13 10:54:07;;;;;;;8.43;7.63;;;;;;;33.60;65.42;100410.31;5042888;28;66496;-39
2022/05/13 10:57:01;;;;;;;7.90;7.30;;;;;;;33.98;66.24;100484.81;5034616;28;69893;-41
2022/05/13 10:59:41;;;;;;;7.55;6.80;;;;;;;33.91;66.27;100486.91;5033328;28;66708;-38
2022/05/13 11:02:32;;;;;;;7.50;6.90;;;;;;;33.89;66.21;100499.94;5043697;28;69683;-38
2022/05/13 11:05:15;;;;;;;12.85;7.03;;;;;;;33.93;67.14;100501.06;5032593;28;66213;-38
2022/05/13 11:08:08;;;;;;;7.10;6.55;;;;;;;33.48;67.68;100425.84;5022133;28;70382;-38
2022/05/13 11:10:52;;;;;;;6.93;6.28;;;;;;;34.21;65.45;100481.06;5028444;28;66221;-39
2022/05/13 11:13:46;;;;;;;6.07;5.57;;;;;;;34.35;65.37;100470.59;5033390;28;70225;-38
2022/05/13 11:16:37;;;;;;;12.60;5.55;;;;;;;34.48;63.74;100462.88;5031540;28;66403;-38
2022/05/13 11:19:19;;;;;;;6.25;5.75;;;;;;;34.48;63.78;100437.56;5036255;28;69145;-38
2022/05/13 11:21:51;;;;;;;6.28;5.78;;;;;;;34.62;63.00;100471.50;5028029;28;65551;-39
2022/05/13 11:27:25;;;;;;;6.15;5.55;;;;;;;34.68;62.98;100522.25;5056118;28;66178;-39
2022/05/13 11:30:14;;;;;;;4.97;4.57;;;;;;;34.66;62.76;100538.03;5035110;28;70633;-46
2022/05/13 11:32:50;;;;;;;6.57;4.90;;;;;;;34.75;62.67;100559.38;5023062;28;66305;-39
2022/05/13 11:35:38;;;;;;;6.90;5.53;;;;;;;34.78;61.93;100564.31;5029236;28;70426;-39
2022/05/13 11:38:22;;;;;;;5.82;5.32;;;;;;;34.74;62.48;100571.34;5027389;28;65662;-38
2022/05/13 11:41:03;;;;;;;5.85;5.35;;;;;;;34.80;61.95;100567.59;5022773;28;69957;-38
2022/05/13 11:44:05;;;;;;;8.60;6.45;;;;;;;34.74;61.99;100565.88;5028980;28;65882;-38
2022/05/13 11:46:57;;;;;;;5.35;4.95;;;;;;;34.82;61.75;100557.28;5037579;28;70048;-38
2022/05/13 11:49:36;;;;;;;5.57;5.07;;;;;;;34.80;61.97;100559.41;5031882;28;65711;-39
2022/05/13 11:52:13;;;;;;;6.13;5.57;;;;;;;34.80;61.62;100581.22;5038532;28;69964;-39
2022/05/13 11:54:44;;;;;;;5.15;4.63;;;;;;;34.77;61.52;100576.28;5036107;28;66520;-38
2022/05/13 11:57:27;;;;;;;9.63;8.70;;;;;;;34.79;61.82;100585.03;5024778;28;69954;-39
2022/05/13 12:00:13;;;;;;;7.43;6.82;;;;;;;34.69;61.82;100581.13;5016083;28;66024;-39
2022/05/13 12:03:08;;;;;;;8.35;7.55;;;;;;;34.30;63.77;100565.84;5030534;28;70464;-39
2022/05/13 12:05:51;;;;;;;8.55;7.85;;;;;;;34.28;64.91;100590.59;5027542;28;66630;-39
2022/05/13 12:08:31;;;;;;;9.57;8.65;;;;;;;34.11;65.34;100566.13;5050426;28;69795;-39
2022/05/13 12:11:35;;;;;;;9.30;8.60;;;;;;;34.00;66.20;100589.63;5033696;28;66959;-38
2022/05/13 12:14:46;;;;;;;10.02;8.88;;;;;;;33.89;67.26;100603.31;5035028;28;70214;-40
2022/05/13 12:18:01;;;;;;;7.57;6.97;;;;;;;33.67;66.02;100611.38;5026207;28;65574;-40
2022/05/13 12:21:04;;;;;;;11.48;5.90;;;;;;;33.48;66.10;100614.28;4991609;28;69488;-39
2022/05/13 12:23:34;;;;;;;5.85;5.35;;;;;;;33.40;66.15;100616.56;5031562;28;66229;-38
2022/05/13 12:26:07;;;;;;;5.78;5.15;;;;;;;33.32;66.18;100631.38;5035145;28;69355;-36
2022/05/13 12:28:56;;;;;;;9.57;5.53;;;;;;;32.78;66.50;100543.91;5043139;28;66054;-36
2022/05/13 12:31:29;;;;;;;6.43;5.30;;;;;;;33.15;66.41;100605.00;5030278;28;69666;-36